createdAt,value
2023-04-16T00:00:56.508Z,98458.67
2023-04-16T00:03:09.654Z,98467.39
2023-04-16T00:05:17.122Z,98463.58
2023-04-16T00:07:25.304Z,98463.10
2023-04-16T00:09:32.347Z,98469.27
2023-04-16T00:11:39.767Z,98463.56
2023-04-16T00:13:44.090Z,98461.84
2023-04-16T00:16:02.480Z,98463.88
2023-04-16T00:18:06.295Z,98461.92
2023-04-16T00:20:11.977Z,98463.27
2023-04-16T00:22:15.620Z,98463.05
2023-04-16T00:24:18.417Z,98464.33
2023-04-16T00:26:24.716Z,98463.35
2023-04-16T00:28:29.138Z,98460.13
2023-04-16T00:30:32.254Z,98467.35
2023-04-16T00:32:37.778Z,98464.17
2023-04-16T00:34:44.742Z,98464.17
2023-04-16T00:37:10.650Z,98459.60
2023-04-16T00:39:17.914Z,98463.80
2023-04-16T00:41:23.328Z,98459.36
2023-04-16T00:43:27.243Z,98460.73
2023-04-16T00:45:38.421Z,98464.43
2023-04-16T00:47:41.702Z,98465.62
2023-04-16T00:49:48.549Z,98465.88
2023-04-16T00:51:55.557Z,98467.83
2023-04-16T00:53:59.688Z,98464.41
2023-04-16T00:56:07.645Z,98466.86
2023-04-16T00:58:11.355Z,98466.25
2023-04-16T01:00:43.883Z,98466.87
2023-04-16T01:02:47.308Z,98467.80
2023-04-16T01:04:56.202Z,98472.63
2023-04-16T01:06:59.429Z,98469.73
2023-04-16T01:09:03.477Z,98470.79
2023-04-16T01:11:07.624Z,98469.52
2023-04-16T01:13:11.142Z,98470.20
2023-04-16T01:15:14.093Z,98467.31
2023-04-16T01:17:19.926Z,98467.30
2023-04-16T01:19:26.162Z,98466.34
2023-04-16T01:21:31.316Z,98470.38
2023-04-16T01:23:35.433Z,98472.48
2023-04-16T01:25:39.719Z,98473.12
2023-04-16T01:27:42.610Z,98473.52
2023-04-16T01:29:45.907Z,98476.27
2023-04-16T01:31:54.602Z,98476.34
2023-04-16T01:34:07.614Z,98479.14
2023-04-16T01:36:11.989Z,98474.05
2023-04-16T01:38:15.265Z,98477.33
2023-04-16T01:40:18.410Z,98477.11
2023-04-16T01:42:21.587Z,98473.27
2023-04-16T01:44:25.616Z,98473.11
2023-04-16T01:46:29.699Z,98471.73
2023-04-16T01:48:33.235Z,98472.93
2023-04-16T01:50:39.202Z,98481.52
2023-04-16T01:52:42.460Z,98478.18
2023-04-16T01:54:45.275Z,98478.89
2023-04-16T01:56:48.432Z,98479.27
2023-04-16T01:58:52.835Z,98477.59
2023-04-16T02:00:56.320Z,98475.59
2023-04-16T02:02:59.645Z,98473.52
2023-04-16T02:05:02.720Z,98478.36
2023-04-16T02:07:06.873Z,98473.74
2023-04-16T02:09:09.819Z,98476.37
2023-04-16T02:11:14.089Z,98476.80
2023-04-16T02:13:17.401Z,98477.14
2023-04-16T02:15:30.474Z,98476.92
2023-04-16T02:17:34.996Z,98479.04
2023-04-16T02:19:44.044Z,98480.80
2023-04-16T02:21:47.149Z,98481.81
2023-04-16T02:23:51.711Z,98482.25
2023-04-16T02:25:58.740Z,98482.80
2023-04-16T02:28:01.743Z,98483.95
2023-04-16T02:30:11.900Z,98484.33
2023-04-16T02:32:15.848Z,98488.27
2023-04-16T02:34:21.041Z,98485.62
2023-04-16T02:36:24.826Z,98487.24
2023-04-16T02:38:27.798Z,98487.44
2023-04-16T02:40:31.645Z,98489.33
2023-04-16T02:42:34.897Z,98488.83
2023-04-16T02:44:38.172Z,98484.11
2023-04-16T02:46:40.928Z,98486.58
2023-04-16T02:48:44.088Z,98486.91
2023-04-16T02:50:48.082Z,98488.77
2023-04-16T02:52:53.045Z,98490.42
2023-04-16T02:55:12.194Z,98489.95
2023-04-16T02:57:25.259Z,98491.07
2023-04-16T02:59:28.791Z,98491.42
2023-04-16T03:01:35.492Z,98490.57
2023-04-16T03:03:39.028Z,98487.65
2023-04-16T03:05:43.709Z,98489.71
2023-04-16T03:07:51.448Z,98491.09
2023-04-16T03:09:55.740Z,98491.52
2023-04-16T03:11:58.624Z,98491.89
2023-04-16T03:14:03.533Z,98494.59
2023-04-16T03:16:08.982Z,98497.82
2023-04-16T03:18:14.460Z,98492.18
2023-04-16T03:20:19.260Z,98495.73
2023-04-16T03:22:22.357Z,98493.69
2023-04-16T03:24:29.731Z,98498.14
2023-04-16T03:26:36.368Z,98501.20
2023-04-16T03:28:39.483Z,98500.31
2023-04-16T03:30:42.794Z,98508.27
2023-04-16T03:32:46.133Z,98508.01
2023-04-16T03:34:49.198Z,98509.05
2023-04-16T03:36:52.067Z,98507.79
2023-04-16T03:38:55.825Z,98509.30
2023-04-16T03:40:59.331Z,98506.31
2023-04-16T03:43:02.984Z,98510.98
2023-04-16T03:45:09.823Z,98512.40
2023-04-16T03:47:17.989Z,98512.98
2023-04-16T03:49:23.547Z,98514.77
2023-04-16T03:51:27.229Z,98513.67
2023-04-16T03:53:31.188Z,98514.45
2023-04-16T03:55:35.304Z,98511.91
2023-04-16T03:57:38.311Z,98517.16
2023-04-16T03:59:44.326Z,98516.31
2023-04-16T04:01:47.769Z,98518.71
2023-04-16T04:04:02.240Z,98519.56
2023-04-16T04:06:13.070Z,98522.23
2023-04-16T04:08:16.635Z,98523.23
2023-04-16T04:10:20.445Z,98526.30
2023-04-16T04:12:23.676Z,98529.23
2023-04-16T04:14:27.861Z,98527.34
2023-04-16T04:16:34.189Z,98533.73
2023-04-16T04:18:39.431Z,98533.71
2023-04-16T04:20:42.372Z,98537.73
2023-04-16T04:22:48.246Z,98541.36
2023-04-16T04:24:51.102Z,98539.73
2023-04-16T04:26:54.305Z,98541.78
2023-04-16T04:28:58.746Z,98536.80
2023-04-16T04:31:02.366Z,98539.71
2023-04-16T04:33:06.474Z,98542.58
2023-04-16T04:35:10.193Z,98540.73
2023-04-16T04:37:14.466Z,98542.52
2023-04-16T04:39:17.355Z,98541.73
2023-04-16T04:41:21.353Z,98540.65
2023-04-16T04:43:44.265Z,98547.02
2023-04-16T04:45:54.002Z,98553.17
2023-04-16T04:47:56.899Z,98554.91
2023-04-16T04:49:59.621Z,98550.50
2023-04-16T04:52:04.288Z,98551.30
2023-04-16T04:54:08.612Z,98553.27
2023-04-16T04:56:12.772Z,98550.09
2023-04-16T04:58:16.934Z,98557.42
2023-04-16T05:00:21.851Z,98557.17
2023-04-16T05:02:33.306Z,98556.00
2023-04-16T05:04:41.541Z,98559.23
2023-04-16T05:06:48.107Z,98558.10
2023-04-16T05:08:50.907Z,98559.42
2023-04-16T05:10:59.217Z,98562.16
2023-04-16T05:13:03.949Z,98564.55
2023-04-16T05:15:07.914Z,98566.65
2023-04-16T05:17:11.002Z,98566.25
2023-04-16T05:19:14.123Z,98566.83
2023-04-16T05:21:17.002Z,98565.45
2023-04-16T05:23:22.035Z,98571.05
2023-04-16T05:25:24.996Z,98567.17
2023-04-16T05:27:27.851Z,98566.04
2023-04-16T05:29:32.675Z,98569.42
2023-04-16T05:31:35.669Z,98570.09
2023-04-16T05:33:38.901Z,98572.73
2023-04-16T05:35:42.133Z,98573.39
2023-04-16T05:37:45.257Z,98573.52
2023-04-16T05:39:50.553Z,98579.05
2023-04-16T05:41:58.711Z,98581.60
2023-04-16T05:44:03.686Z,98584.84
2023-04-16T05:46:09.331Z,98585.52
2023-04-16T05:48:16.974Z,98583.80
2023-04-16T05:50:23.222Z,98586.16
2023-04-16T05:52:26.610Z,98591.01
2023-04-16T05:54:29.453Z,98593.53
2023-04-16T05:56:34.170Z,98598.44
2023-04-16T05:58:37.497Z,98605.87
2023-04-16T06:00:41.108Z,98614.80
2023-04-16T06:02:44.329Z,98616.30
2023-04-16T06:04:50.010Z,98615.95
2023-04-16T06:06:52.819Z,98614.14
2023-04-16T06:08:58.290Z,98617.38
2023-04-16T06:11:03.478Z,98620.83
2023-04-16T06:13:06.778Z,98621.47
2023-04-16T06:15:13.116Z,98625.73
2023-04-16T06:17:16.623Z,98629.75
2023-04-16T06:19:19.669Z,98629.89
2023-04-16T06:21:35.262Z,98632.16
2023-04-16T06:23:39.072Z,98633.43
2023-04-16T06:25:41.909Z,98636.79
2023-04-16T06:27:51.818Z,98636.77
2023-04-16T06:29:58.795Z,98638.69
2023-04-16T06:32:02.128Z,98639.21
2023-04-16T06:34:07.697Z,98642.51
2023-04-16T06:36:11.570Z,98645.61
2023-04-16T06:38:17.080Z,98648.27
2023-04-16T06:40:21.906Z,98650.20
2023-04-16T06:42:29.535Z,98653.80
2023-04-16T06:44:39.313Z,98657.13
2023-04-16T06:46:52.414Z,98656.59
2023-04-16T06:48:57.830Z,98659.69
2023-04-16T06:51:03.175Z,98661.84
2023-04-16T06:53:09.761Z,98664.98
2023-04-16T06:55:13.422Z,98669.65
2023-04-16T06:57:16.346Z,98673.16
2023-04-16T06:59:19.085Z,98674.80
2023-04-16T07:01:23.013Z,98679.18
2023-04-16T07:03:26.748Z,98679.93
2023-04-16T07:05:30.703Z,98679.92
2023-04-16T07:07:33.641Z,98681.75
2023-04-16T07:09:41.238Z,98682.33
2023-04-16T07:11:44.990Z,98683.11
2023-04-16T07:13:48.932Z,98686.58
2023-04-16T07:15:51.825Z,98687.92
2023-04-16T07:18:05.240Z,98688.45
2023-04-16T07:20:17.690Z,98693.19
2023-04-16T07:22:22.522Z,98693.97
2023-04-16T07:24:27.055Z,98693.16
2023-04-16T07:26:29.734Z,98697.33
2023-04-16T07:28:38.665Z,98698.67
2023-04-16T07:30:43.837Z,98698.93
2023-04-16T07:32:49.135Z,98699.91
2023-04-16T07:34:53.407Z,98702.52
2023-04-16T07:37:00.172Z,98703.74
2023-04-16T07:39:09.273Z,98703.63
2023-04-16T07:41:16.567Z,98704.46
2023-04-16T07:43:19.397Z,98704.37
2023-04-16T07:45:29.175Z,98701.05
2023-04-16T07:47:32.006Z,98705.35
2023-04-16T07:49:38.457Z,98702.06
2023-04-16T07:51:50.063Z,98705.66
2023-04-16T07:53:55.621Z,98705.04
2023-04-16T07:55:58.816Z,98703.30
2023-04-16T07:58:03.011Z,98708.88
2023-04-16T08:00:09.684Z,98704.89
2023-04-16T08:02:18.646Z,98707.23
2023-04-16T08:04:43.437Z,98707.55
2023-04-16T08:06:48.049Z,98712.10
2023-04-16T08:08:51.365Z,98716.52
2023-04-16T08:10:58.019Z,98719.15
2023-04-16T08:13:02.070Z,98722.16
2023-04-16T08:15:06.921Z,98726.34
2023-04-16T08:17:14.687Z,98725.78
2023-04-16T08:19:18.590Z,98727.95
2023-04-16T08:21:22.919Z,98733.08
2023-04-16T08:23:26.197Z,98731.75
2023-04-16T08:25:30.165Z,98737.31
2023-04-16T08:27:33.411Z,98739.29
2023-04-16T08:29:36.546Z,98741.42
2023-04-16T08:31:43.631Z,98743.14
2023-04-16T08:33:46.655Z,98744.87
2023-04-16T08:35:50.725Z,98749.98
2023-04-16T08:37:54.309Z,98749.38
2023-04-16T08:39:57.407Z,98753.36
2023-04-16T08:42:06.101Z,98751.52
2023-04-16T08:44:12.123Z,98755.15
2023-04-16T08:46:17.718Z,98757.17
2023-04-16T08:48:22.249Z,98757.86
2023-04-16T08:50:29.818Z,98763.30
2023-04-16T08:52:43.556Z,98763.88
2023-04-16T08:55:12.384Z,98765.41
2023-04-16T08:57:19.705Z,98768.29
2023-04-16T08:59:23.736Z,98772.08
2023-04-16T09:01:26.914Z,98774.08
2023-04-16T09:03:35.668Z,98775.79
2023-04-16T09:05:39.753Z,98779.30
2023-04-16T09:07:44.713Z,98784.30
2023-04-16T09:09:49.992Z,98785.73
2023-04-16T09:11:54.035Z,98790.65
2023-04-16T09:13:58.078Z,98791.77
2023-04-16T09:16:01.311Z,98790.30
2023-04-16T09:18:06.654Z,98793.73
2023-04-16T09:20:13.842Z,98797.38
2023-04-16T09:22:18.162Z,98798.99
2023-04-16T09:24:24.316Z,98806.40
2023-04-16T09:26:34.422Z,98808.04
2023-04-16T09:28:43.582Z,98808.37
2023-04-16T09:30:46.416Z,98807.61
2023-04-16T09:32:51.360Z,98807.16
2023-04-16T09:35:00.248Z,98810.60
2023-04-16T09:37:18.584Z,98811.66
2023-04-16T09:39:26.148Z,98815.95
2023-04-16T09:41:39.502Z,98818.50
2023-04-16T09:43:49.792Z,98816.05
2023-04-16T09:45:55.469Z,98816.21
2023-04-16T09:48:08.054Z,98814.25
2023-04-16T09:50:20.151Z,98816.43
2023-04-16T09:52:26.854Z,98815.27
2023-04-16T09:54:30.168Z,98815.26
2023-04-16T09:56:35.563Z,98819.79
2023-04-16T09:58:41.796Z,98818.20
2023-04-16T10:00:44.597Z,98817.98
2023-04-16T10:04:54.689Z,98821.11
2023-04-16T10:07:06.789Z,98821.38
2023-04-16T10:09:11.256Z,98823.36
2023-04-16T10:11:15.601Z,98827.23
2023-04-16T10:13:19.220Z,98826.76
2023-04-16T10:15:42.123Z,98832.73
2023-04-16T10:17:47.650Z,98832.70
2023-04-16T10:19:52.112Z,98832.85
2023-04-16T10:21:55.853Z,98833.23
2023-04-16T10:24:01.999Z,98835.38
2023-04-16T10:26:06.526Z,98837.66
2023-04-16T10:28:10.212Z,98836.90
2023-04-16T10:30:19.074Z,98837.23
2023-04-16T10:32:25.697Z,98839.30
2023-04-16T10:34:32.463Z,98843.91
2023-04-16T10:36:48.224Z,98842.25
2023-04-16T10:39:01.061Z,98845.60
2023-04-16T10:41:09.492Z,98846.18
2023-04-16T10:43:18.994Z,98845.62
2023-04-16T10:45:28.590Z,98848.19
2023-04-16T10:47:32.965Z,98843.86
2023-04-16T10:49:37.206Z,98848.84
2023-04-16T10:51:40.737Z,98845.90
2023-04-16T10:53:46.893Z,98849.08
2023-04-16T10:55:57.944Z,98847.38
2023-04-16T10:58:00.819Z,98853.31
2023-04-16T11:00:42.854Z,98854.55
2023-04-16T11:02:49.953Z,98855.57
2023-04-16T11:04:58.322Z,98857.61
2023-04-16T11:07:11.708Z,98856.27
2023-04-16T11:09:34.392Z,98856.73
2023-04-16T11:11:41.677Z,98863.53
2023-04-16T11:13:47.033Z,98862.73
2023-04-16T11:15:58.948Z,98867.42
2023-04-16T11:18:05.521Z,98868.51
2023-04-16T11:20:24.154Z,98872.15
2023-04-16T11:22:29.392Z,98871.28
2023-04-16T11:24:33.336Z,98874.83
2023-04-16T11:26:36.278Z,98874.02
2023-04-16T11:28:39.879Z,98876.89
2023-04-16T11:30:42.673Z,98878.48
2023-04-16T11:32:56.166Z,98878.36
2023-04-16T11:35:04.431Z,98882.22
2023-04-16T11:37:09.666Z,98884.77
2023-04-16T11:39:13.344Z,98885.56
2023-04-16T11:41:23.645Z,98888.64
2023-04-16T11:43:26.866Z,98890.11
2023-04-16T11:45:30.976Z,98888.91
2023-04-16T11:47:47.597Z,98889.27
2023-04-16T11:49:52.828Z,98891.05
2023-04-16T11:51:56.608Z,98891.93
2023-04-16T11:53:59.457Z,98893.64
2023-04-16T11:56:04.999Z,98895.58
2023-04-16T11:58:19.471Z,98895.52
2023-04-16T12:00:24.761Z,98896.35
2023-04-16T12:02:56.084Z,98895.96
2023-04-16T12:05:06.774Z,98896.70
2023-04-16T12:07:16.888Z,98899.22
2023-04-16T12:09:28.091Z,98895.19
2023-04-16T12:11:44.463Z,98901.67
2023-04-16T12:14:24.862Z,98898.83
2023-04-16T12:16:28.276Z,98899.34
2023-04-16T12:18:32.247Z,98900.71
2023-04-16T12:20:41.985Z,98899.85
2023-04-16T12:22:47.702Z,98903.98
2023-04-16T12:24:56.993Z,98904.27
2023-04-16T12:27:03.761Z,98905.04
2023-04-16T12:29:22.541Z,98903.61
2023-04-16T12:31:56.534Z,98903.88
2023-04-16T12:34:03.665Z,98904.41
2023-04-16T12:36:19.528Z,98901.48
2023-04-16T12:38:24.456Z,98901.33
2023-04-16T12:40:28.854Z,98905.30
2023-04-16T12:42:36.087Z,98903.64
2023-04-16T12:44:39.411Z,98903.27
2023-04-16T12:46:46.608Z,98904.09
2023-04-16T12:48:50.432Z,98898.83
2023-04-16T12:50:55.081Z,98901.55
2023-04-16T12:53:00.895Z,98901.06
2023-04-16T12:55:07.807Z,98902.99
2023-04-16T12:57:28.821Z,98899.92
2023-04-16T12:59:31.725Z,98897.99
2023-04-16T13:01:37.238Z,98897.93
2023-04-16T13:03:44.969Z,98898.33
2023-04-16T13:05:48.210Z,98895.38
2023-04-16T13:07:51.502Z,98898.19
2023-04-16T13:09:54.963Z,98896.58
2023-04-16T13:11:57.920Z,98897.73
2023-04-16T13:14:03.488Z,98901.23
2023-04-16T13:16:09.594Z,98899.10
2023-04-16T13:18:14.821Z,98900.88
2023-04-16T13:20:24.422Z,98903.06
2023-04-16T13:22:27.775Z,98905.43
2023-04-16T13:24:30.588Z,98901.70
2023-04-16T13:26:33.883Z,98904.77
2023-04-16T13:28:36.959Z,98904.48
2023-04-16T13:30:39.800Z,98909.15
2023-04-16T13:32:42.727Z,98908.14
2023-04-16T13:34:45.803Z,98909.98
2023-04-16T13:36:48.791Z,98910.36
2023-04-16T13:38:51.990Z,98914.15
2023-04-16T13:40:54.664Z,98914.20
2023-04-16T13:42:58.032Z,98913.95
2023-04-16T13:45:01.631Z,98915.48
2023-04-16T13:47:06.670Z,98915.23
2023-04-16T13:49:10.212Z,98915.70
2023-04-16T13:51:15.837Z,98918.63
2023-04-16T13:53:19.673Z,98921.59
2023-04-16T13:55:22.984Z,98919.40
2023-04-16T13:57:26.450Z,98920.46
2023-04-16T13:59:33.357Z,98921.38
2023-04-16T14:01:37.884Z,98918.48
2023-04-16T14:03:42.651Z,98918.16
2023-04-16T14:05:45.780Z,98919.81
2023-04-16T14:07:49.049Z,98919.71
2023-04-16T14:09:56.630Z,98917.34
2023-04-16T14:11:59.594Z,98916.73
2023-04-16T14:14:03.287Z,98922.21
2023-04-16T14:16:10.311Z,98918.00
2023-04-16T14:18:15.623Z,98922.39
2023-04-16T14:20:18.994Z,98923.45
2023-04-16T14:22:21.699Z,98926.31
2023-04-16T14:24:45.725Z,98927.25
2023-04-16T14:27:00.284Z,98924.06
2023-04-16T14:29:03.159Z,98927.30
2023-04-16T14:31:06.107Z,98925.71
2023-04-16T14:33:09.427Z,98927.72
2023-04-16T14:35:13.463Z,98927.21
2023-04-16T14:37:17.942Z,98926.46
2023-04-16T14:39:23.584Z,98923.90
2023-04-16T14:41:27.306Z,98927.39
2023-04-16T14:43:39.947Z,98926.50
2023-04-16T14:45:47.773Z,98928.95
2023-04-16T14:47:52.991Z,98932.82
2023-04-16T14:49:59.114Z,98931.67
2023-04-16T14:52:06.841Z,98933.13
2023-04-16T14:54:10.696Z,98934.92
2023-04-16T14:56:15.800Z,98937.39
2023-04-16T15:00:42.256Z,98933.48
2023-04-16T15:02:48.727Z,98933.43
2023-04-16T15:04:51.876Z,98936.84
2023-04-16T15:06:59.198Z,98938.55
2023-04-16T15:09:04.152Z,98936.77
2023-04-16T15:11:07.515Z,98937.05
2023-04-16T15:13:25.560Z,98940.89
2023-04-16T15:15:31.385Z,98939.80
2023-04-16T15:17:38.248Z,98942.27
2023-04-16T15:19:52.593Z,98938.40
2023-04-16T15:22:03.984Z,98939.84
2023-04-16T15:24:16.891Z,98942.13
2023-04-16T15:26:45.685Z,98947.83
2023-04-16T15:28:52.875Z,98947.52
2023-04-16T15:30:58.069Z,98948.02
2023-04-16T15:33:05.620Z,98952.44
2023-04-16T15:35:12.121Z,98951.05
2023-04-16T15:37:17.406Z,98951.17
2023-04-16T15:39:23.960Z,98952.63
2023-04-16T15:41:31.761Z,98955.70
2023-04-16T15:43:39.541Z,98956.88
2023-04-16T15:45:45.815Z,98955.30
2023-04-16T15:47:51.496Z,98961.95
2023-04-16T15:49:54.481Z,98965.36
2023-04-16T15:52:03.074Z,98964.90
2023-04-16T15:54:24.771Z,98969.83
2023-04-16T15:56:28.762Z,98970.04
2023-04-16T15:58:33.244Z,98972.67
2023-04-16T16:00:39.941Z,98971.15
2023-04-16T16:02:52.545Z,98970.77
2023-04-16T16:05:02.510Z,98973.45
2023-04-16T16:07:11.564Z,98976.25
2023-04-16T16:09:24.963Z,98977.96
2023-04-16T16:11:31.650Z,98976.70
2023-04-16T16:13:36.962Z,98978.33
2023-04-16T16:15:43.464Z,98982.50
2023-04-16T16:17:53.220Z,98981.98
2023-04-16T16:20:13.777Z,98984.73
2023-04-16T16:22:28.518Z,98986.37
2023-04-16T16:24:57.582Z,98990.48
2023-04-16T16:27:02.989Z,98989.38
2023-04-16T16:29:09.578Z,98993.16
2023-04-16T16:31:14.880Z,98995.77
2023-04-16T16:33:30.054Z,98995.45
2023-04-16T16:35:33.497Z,98993.54
2023-04-16T16:37:43.507Z,98998.45
2023-04-16T16:39:51.304Z,99001.74
2023-04-16T16:41:55.104Z,99000.30
2023-04-16T16:44:05.542Z,99002.81
2023-04-16T16:46:23.390Z,99002.96
2023-04-16T16:48:28.721Z,99007.84
2023-04-16T16:50:32.975Z,99007.61
2023-04-16T16:52:39.007Z,99006.83
2023-04-16T16:54:45.358Z,99005.50
2023-04-16T16:56:48.094Z,99010.22
2023-04-16T16:58:55.505Z,99016.79
2023-04-16T17:01:01.489Z,99015.55
2023-04-16T17:03:04.508Z,99018.46
2023-04-16T17:05:08.812Z,99015.15
2023-04-16T17:07:13.880Z,99017.69
2023-04-16T17:09:18.688Z,99016.02
2023-04-16T17:11:21.990Z,99017.91
2023-04-16T17:13:28.284Z,99020.36
2023-04-16T17:15:31.130Z,99022.44
2023-04-16T17:17:38.141Z,99023.80
2023-04-16T17:20:08.945Z,99024.71
2023-04-16T17:22:15.728Z,99023.65
2023-04-16T17:24:18.833Z,99024.95
2023-04-16T17:26:27.100Z,99028.20
2023-04-16T17:28:30.913Z,99026.72
2023-04-16T17:30:33.798Z,99028.44
2023-04-16T17:32:37.583Z,99029.79
2023-04-16T17:34:41.616Z,99032.62
2023-04-16T17:36:46.927Z,99034.44
2023-04-16T17:38:51.557Z,99035.67
2023-04-16T17:40:55.273Z,99031.84
2023-04-16T17:42:59.770Z,99035.60
2023-04-16T17:45:03.429Z,99036.54
2023-04-16T17:47:08.814Z,99043.16
2023-04-16T17:49:21.782Z,99039.33
2023-04-16T17:51:30.127Z,99042.57
2023-04-16T17:53:35.483Z,99044.58
2023-04-16T17:55:38.350Z,99050.02
2023-04-16T17:57:41.047Z,99054.03
2023-04-16T17:59:44.222Z,99054.90
2023-04-16T18:01:49.510Z,99052.04
2023-04-16T18:03:52.557Z,99056.46
2023-04-16T18:05:58.497Z,99058.78
2023-04-16T18:08:02.390Z,99066.27
2023-04-16T18:10:08.889Z,99063.32
2023-04-16T18:12:13.847Z,99068.77
2023-04-16T18:14:22.498Z,99075.59
2023-04-16T18:16:26.264Z,99076.92
2023-04-16T18:18:31.136Z,99084.48
2023-04-16T18:20:35.383Z,99080.80
2023-04-16T18:22:40.344Z,99079.05
2023-04-16T18:24:49.428Z,99085.73
2023-04-16T18:28:57.494Z,99087.17
2023-04-16T18:31:14.614Z,99093.41
2023-04-16T18:33:48.636Z,99096.89
2023-04-16T18:35:47.746Z,99097.10
2023-04-16T18:37:50.943Z,99100.95
2023-04-16T18:39:57.934Z,99101.17
2023-04-16T18:42:03.971Z,99100.07
2023-04-16T18:44:10.917Z,99099.91
2023-04-16T18:46:16.097Z,99099.98
2023-04-16T18:48:19.240Z,99099.70
2023-04-16T18:50:22.111Z,99104.31
2023-04-16T18:52:24.881Z,99104.02
2023-04-16T18:54:32.010Z,99104.16
2023-04-16T18:56:34.772Z,99104.81
2023-04-16T18:58:38.885Z,99108.18
2023-04-16T19:00:42.136Z,99112.21
2023-04-16T19:02:46.271Z,99113.24
2023-04-16T19:04:49.093Z,99116.31
2023-04-16T19:06:52.556Z,99121.00
2023-04-16T19:09:00.230Z,99123.88
2023-04-16T19:11:06.330Z,99124.12
2023-04-16T19:13:09.737Z,99125.29
2023-04-16T19:15:15.718Z,99124.41
2023-04-16T19:17:18.987Z,99126.08
2023-04-16T19:19:24.316Z,99128.19
2023-04-16T19:21:27.737Z,99129.58
2023-04-16T19:23:32.894Z,99131.67
2023-04-16T19:25:40.683Z,99133.42
2023-04-16T19:27:47.067Z,99132.59
2023-04-16T19:29:50.234Z,99135.66
2023-04-16T19:31:55.336Z,99139.37
2023-04-16T19:33:58.178Z,99137.87
2023-04-16T19:36:02.810Z,99139.55
2023-04-16T19:38:10.967Z,99139.56
2023-04-16T19:40:13.959Z,99136.38
2023-04-16T19:42:16.614Z,99142.29
2023-04-16T19:44:23.621Z,99135.42
2023-04-16T19:46:36.331Z,99140.14
2023-04-16T19:48:42.822Z,99139.85
2023-04-16T19:50:46.562Z,99139.70
2023-04-16T19:52:49.675Z,99139.16
2023-04-16T19:54:52.779Z,99143.48
2023-04-16T19:56:57.101Z,99143.08
2023-04-16T19:59:03.395Z,99145.10
2023-04-16T20:01:11.096Z,99146.45
2023-04-16T20:03:14.353Z,99148.48
2023-04-16T20:05:20.150Z,99150.57
2023-04-16T20:07:24.657Z,99155.79
2023-04-16T20:09:37.477Z,99155.04
2023-04-16T20:11:47.212Z,99161.70
2023-04-16T20:13:49.996Z,99163.83
2023-04-16T20:15:53.834Z,99161.91
2023-04-16T20:17:56.921Z,99162.00
2023-04-16T20:20:01.199Z,99157.17
2023-04-16T20:22:09.051Z,99162.11
2023-04-16T20:24:12.073Z,99158.77
2023-04-16T20:26:19.456Z,99158.06
2023-04-16T20:28:22.440Z,99156.60
2023-04-16T20:30:29.651Z,99155.83
2023-04-16T20:32:33.470Z,99153.50
2023-04-16T20:34:38.890Z,99156.54
2023-04-16T20:36:43.868Z,99153.55
2023-04-16T20:38:48.434Z,99151.19
2023-04-16T20:41:13.229Z,99153.02
2023-04-16T20:43:19.872Z,99150.73
2023-04-16T20:45:24.288Z,99147.58
2023-04-16T20:47:27.269Z,99147.51
2023-04-16T20:49:30.220Z,99143.76
2023-04-16T20:51:33.424Z,99146.11
2023-04-16T20:53:40.496Z,99149.56
2023-04-16T20:55:44.939Z,99148.38
2023-04-16T20:57:48.942Z,99146.45
2023-04-16T20:59:53.662Z,99148.67
2023-04-16T21:01:57.243Z,99152.23
2023-04-16T21:04:01.705Z,99151.83
2023-04-16T21:06:08.348Z,99149.83
2023-04-16T21:08:11.626Z,99153.90
2023-04-16T21:10:20.255Z,99156.02
2023-04-16T21:12:23.613Z,99154.14
2023-04-16T21:14:28.590Z,99155.70
2023-04-16T21:16:32.481Z,99155.28
2023-04-16T21:18:36.896Z,99153.13
2023-04-16T21:20:40.105Z,99154.09
2023-04-16T21:22:47.982Z,99155.30
2023-04-16T21:24:53.728Z,99152.52
2023-04-16T21:27:03.970Z,99152.09
2023-04-16T21:29:09.426Z,99152.98
2023-04-16T21:31:15.288Z,99151.25
2023-04-16T21:33:19.707Z,99150.73
2023-04-16T21:35:23.161Z,99150.65
2023-04-16T21:37:26.596Z,99150.45
2023-04-16T21:39:31.293Z,99156.13
2023-04-16T21:41:34.175Z,99153.89
2023-04-16T21:43:38.272Z,99153.59
2023-04-16T21:45:41.700Z,99156.05
2023-04-16T21:47:44.814Z,99150.16
2023-04-16T21:49:47.461Z,99153.48
2023-04-16T21:51:50.307Z,99149.05
2023-04-16T21:53:57.900Z,99152.88
2023-04-16T21:56:00.794Z,99150.14
2023-04-16T21:58:04.680Z,99149.73
2023-04-16T22:00:13.961Z,99149.02
2023-04-16T22:02:17.054Z,99146.27
2023-04-16T22:04:26.486Z,99144.72
2023-04-16T22:06:29.977Z,99141.77
2023-04-16T22:08:32.686Z,99139.60
2023-04-16T22:10:36.406Z,99141.02
2023-04-16T22:12:45.226Z,99140.02
2023-04-16T22:14:59.768Z,99136.57
2023-04-16T22:17:15.116Z,99136.34
2023-04-16T22:19:21.748Z,99138.08
2023-04-16T22:21:24.932Z,99136.95
2023-04-16T22:23:27.853Z,99135.96
2023-04-16T22:25:30.870Z,99137.52
2023-04-16T22:27:34.934Z,99134.27
2023-04-16T22:29:37.981Z,99135.68
2023-04-16T22:31:40.987Z,99134.88
2023-04-16T22:33:43.814Z,99133.21
2023-04-16T22:35:46.749Z,99134.30
2023-04-16T22:37:50.552Z,99139.48
2023-04-16T22:39:53.872Z,99135.04
2023-04-16T22:41:56.833Z,99136.27
2023-04-16T22:44:24.127Z,99133.20
2023-04-16T22:46:27.911Z,99135.83
2023-04-16T22:48:33.090Z,99135.50
2023-04-16T22:50:36.051Z,99138.03
2023-04-16T22:52:42.280Z,99138.55
2023-04-16T22:54:45.821Z,99137.83
2023-04-16T22:56:48.945Z,99135.84
2023-04-16T22:59:08.223Z,99134.17
2023-04-16T23:01:11.394Z,99133.48
2023-04-16T23:03:15.655Z,99136.61
2023-04-16T23:05:21.685Z,99138.15
2023-04-16T23:07:25.738Z,99137.56
2023-04-16T23:09:28.703Z,99138.04
2023-04-16T23:11:31.577Z,99141.02
2023-04-16T23:13:35.731Z,99141.19
2023-04-16T23:15:38.598Z,99145.55
2023-04-16T23:17:42.465Z,99142.75
2023-04-16T23:19:48.674Z,99145.27
2023-04-16T23:21:52.305Z,99149.08
2023-04-16T23:23:55.750Z,99146.57
2023-04-16T23:25:58.589Z,99148.03
2023-04-16T23:28:01.549Z,99147.36
2023-04-16T23:30:07.288Z,99148.81
2023-04-16T23:32:11.906Z,99145.58
2023-04-16T23:34:14.689Z,99147.60
2023-04-16T23:36:17.470Z,99149.14
2023-04-16T23:38:21.359Z,99144.86
2023-04-16T23:40:29.341Z,99147.42
2023-04-16T23:42:35.587Z,99145.48
2023-04-16T23:44:40.643Z,99146.73
2023-04-16T23:46:49.761Z,99144.77
2023-04-16T23:48:56.369Z,99148.64
2023-04-16T23:51:00.368Z,99146.58
2023-04-16T23:53:11.090Z,99144.98
2023-04-16T23:55:14.822Z,99143.61
2023-04-16T23:57:17.681Z,99140.36
2023-04-16T23:59:20.903Z,99136.98
